Pike Bay, Minnesota
Current Conditions -  °F | °C
As of 9:55 AM on Friday 21 Nov 2014 (Local Time) from KY49 Reporting Station
Clear Clear  
Wind Chill:   Ceiling: Unl
Heat Index: 18°   Visibility: 10mi
Dew Point: 10°   Wind: 14mph
Humidity: 73%   Direction: 190°S
Pressure: 29.9"   Gusts: 22mph
Location:  47.3012°N, 94.5426°W
Report Text: KY49 211555Z AUTO 19012G19KT 10SM CLR M08/M12 A2990 RMK AO2 T10801120
Loading
Personal Weather Stations






























Interactive Weather Map New forecast layout! Learn more

10-Day Weather Forecast

Advertisements
Track Severe Weather on mobile